createdAt,value
2022-10-02T00:00:44.495Z,2.72
2022-10-02T00:01:58.949Z,2.25
2022-10-02T00:03:10.295Z,2.55
2022-10-02T00:04:18.500Z,2.28
2022-10-02T00:05:48.116Z,2.50
2022-10-02T00:06:52.871Z,2.15
2022-10-02T00:08:13.425Z,2.80
2022-10-02T00:09:57.928Z,2.22
2022-10-02T00:11:24.502Z,2.72
2022-10-02T00:12:29.241Z,2.85
2022-10-02T00:13:39.467Z,2.40
2022-10-02T00:14:45.070Z,2.13
2022-10-02T00:15:49.020Z,2.60
2022-10-02T00:16:55.373Z,2.50
2022-10-02T00:18:07.043Z,2.67
2022-10-02T00:19:11.535Z,2.45
2022-10-02T00:20:16.120Z,2.30
2022-10-02T00:21:20.835Z,3.08
2022-10-02T00:23:00.138Z,2.30
2022-10-02T00:24:05.638Z,2.78
2022-10-02T00:25:22.961Z,2.67
2022-10-02T00:26:33.744Z,2.15
2022-10-02T00:28:11.423Z,2.65
2022-10-02T00:29:28.384Z,2.60
2022-10-02T00:30:41.486Z,2.10
2022-10-02T00:31:54.176Z,2.92
2022-10-02T00:33:17.528Z,2.00
2022-10-02T00:34:33.564Z,2.58
2022-10-02T00:35:41.420Z,2.30
2022-10-02T00:37:06.567Z,2.13
2022-10-02T00:38:23.315Z,2.42
2022-10-02T00:39:47.521Z,2.08
2022-10-02T00:40:58.451Z,2.13
2022-10-02T00:42:23.321Z,2.17
2022-10-02T00:43:31.036Z,1.98
2022-10-02T00:45:04.323Z,2.28
2022-10-02T00:46:28.562Z,1.90
2022-10-02T00:47:45.601Z,2.30
2022-10-02T00:49:04.540Z,1.75
2022-10-02T00:50:32.016Z,5.75
2022-10-02T00:52:11.564Z,2.80
2022-10-02T00:53:27.215Z,2.63
2022-10-02T00:55:14.530Z,2.28
2022-10-02T00:56:53.922Z,2.03
2022-10-02T00:58:04.743Z,1.90
2022-10-02T00:59:25.277Z,2.70
2022-10-02T01:00:27.617Z,2.22
2022-10-02T01:01:41.268Z,2.50
2022-10-02T01:03:26.353Z,1.70
2022-10-02T01:04:37.782Z,2.08
2022-10-02T01:05:40.066Z,2.40
2022-10-02T01:06:42.446Z,2.17
2022-10-02T01:07:49.799Z,2.30
2022-10-02T01:08:52.097Z,2.10
2022-10-02T01:09:54.436Z,2.20
2022-10-02T01:10:56.798Z,2.15
2022-10-02T01:12:00.195Z,2.33
2022-10-02T01:13:02.663Z,2.40
2022-10-02T01:14:05.232Z,2.17
2022-10-02T01:15:19.211Z,2.00
2022-10-02T01:16:21.445Z,2.03
2022-10-02T01:17:34.315Z,2.30
2022-10-02T01:18:36.522Z,1.92
2022-10-02T01:19:40.954Z,1.85
2022-10-02T01:20:48.355Z,2.00
2022-10-02T01:21:56.872Z,2.22
2022-10-02T01:23:03.735Z,2.35
2022-10-02T01:24:14.759Z,2.85
2022-10-02T01:25:17.138Z,2.67
2022-10-02T01:26:19.998Z,1.85
2022-10-02T01:27:24.566Z,2.00
2022-10-02T01:28:27.203Z,2.33
2022-10-02T01:29:29.432Z,1.65
2022-10-02T01:30:34.169Z,2.60
2022-10-02T01:31:37.015Z,2.17
2022-10-02T01:33:09.615Z,1.98
2022-10-02T01:34:12.255Z,2.03
2022-10-02T01:35:14.635Z,2.10
2022-10-02T01:36:17.214Z,2.03
2022-10-02T01:37:22.273Z,2.08
2022-10-02T01:38:25.154Z,2.00
2022-10-02T01:39:27.448Z,2.30
2022-10-02T01:40:32.036Z,1.90
2022-10-02T01:41:41.101Z,2.30
2022-10-02T01:42:43.292Z,2.10
2022-10-02T01:43:56.220Z,2.10
2022-10-02T01:44:58.722Z,2.25
2022-10-02T01:46:19.454Z,2.10
2022-10-02T01:47:43.715Z,1.98
2022-10-02T01:48:55.252Z,2.13
2022-10-02T01:50:24.258Z,2.00
2022-10-02T01:51:29.105Z,2.42
2022-10-02T01:52:58.298Z,2.42
2022-10-02T01:54:03.128Z,2.53
2022-10-02T01:55:29.461Z,2.20
2022-10-02T01:56:51.228Z,2.40
2022-10-02T01:58:05.212Z,1.85
2022-10-02T01:59:16.439Z,2.45
2022-10-02T02:00:25.611Z,2.30
2022-10-02T02:01:40.304Z,2.13
2022-10-02T02:02:48.246Z,2.40
2022-10-02T02:04:01.254Z,1.95
2022-10-02T02:05:17.905Z,3.03
2022-10-02T02:06:48.175Z,2.22
2022-10-02T02:07:55.270Z,2.13
2022-10-02T02:09:12.862Z,2.10
2022-10-02T02:10:34.086Z,2.72
2022-10-02T02:11:41.552Z,2.60
2022-10-02T02:12:49.575Z,2.17
2022-10-02T02:14:16.586Z,2.17
2022-10-02T02:15:34.916Z,2.40
2022-10-02T02:16:37.298Z,2.03
2022-10-02T02:17:55.379Z,2.08
2022-10-02T02:19:25.536Z,2.28
2022-10-02T02:20:34.364Z,2.25
2022-10-02T02:21:59.041Z,2.40
2022-10-02T02:23:10.674Z,2.58
2022-10-02T02:24:39.303Z,2.70
2022-10-02T02:25:45.762Z,2.40
2022-10-02T02:26:49.489Z,2.22
2022-10-02T02:27:57.279Z,3.28
2022-10-02T02:29:07.490Z,2.05
2022-10-02T02:30:13.927Z,2.42
2022-10-02T02:31:20.659Z,2.15
2022-10-02T02:32:26.945Z,2.70
2022-10-02T02:33:39.839Z,2.70
2022-10-02T02:34:48.045Z,2.25
2022-10-02T02:35:55.047Z,2.80
2022-10-02T02:37:05.800Z,2.30
2022-10-02T02:38:17.958Z,2.50
2022-10-02T02:39:28.923Z,2.33
2022-10-02T02:40:37.032Z,2.33
2022-10-02T02:41:48.818Z,2.25
2022-10-02T02:43:01.204Z,2.20
2022-10-02T02:44:11.590Z,1.88
2022-10-02T02:45:19.869Z,2.30
2022-10-02T02:46:28.457Z,2.30
2022-10-02T02:48:01.171Z,2.38
2022-10-02T02:49:09.827Z,2.20
2022-10-02T02:50:18.566Z,2.33
2022-10-02T02:51:29.653Z,2.53
2022-10-02T02:52:41.607Z,2.33
2022-10-02T02:54:04.697Z,2.28
2022-10-02T02:55:18.346Z,2.80
2022-10-02T02:56:21.679Z,2.67
2022-10-02T02:57:30.113Z,2.45
2022-10-02T02:58:41.361Z,2.20
2022-10-02T02:59:46.648Z,2.45
2022-10-02T03:00:49.321Z,2.22
2022-10-02T03:01:51.723Z,2.22
2022-10-02T03:02:55.467Z,2.45
2022-10-02T03:03:57.674Z,2.80
2022-10-02T03:04:59.801Z,2.20
2022-10-02T03:06:22.062Z,2.25
2022-10-02T03:07:24.500Z,2.63
2022-10-02T03:08:29.278Z,2.20
2022-10-02T03:09:33.494Z,2.10
2022-10-02T03:10:53.351Z,2.28
2022-10-02T03:12:24.003Z,2.60
2022-10-02T03:13:33.136Z,3.03
2022-10-02T03:15:08.274Z,2.63
2022-10-02T03:16:19.920Z,2.80
2022-10-02T03:17:35.697Z,3.05
2022-10-02T03:19:14.653Z,2.78
2022-10-02T03:20:17.463Z,1.88
2022-10-02T03:21:29.455Z,2.72
2022-10-02T03:22:45.612Z,2.40
2022-10-02T03:24:01.177Z,2.00
2022-10-02T03:25:22.579Z,2.33
2022-10-02T03:26:41.159Z,2.50
2022-10-02T03:27:49.602Z,2.53
2022-10-02T03:28:56.935Z,2.33
2022-10-02T03:30:20.558Z,2.40
2022-10-02T03:31:25.279Z,1.92
2022-10-02T03:32:29.403Z,2.33
2022-10-02T03:33:36.230Z,2.33
2022-10-02T03:34:39.055Z,2.97
2022-10-02T03:35:42.209Z,2.25
2022-10-02T03:36:46.605Z,1.75
2022-10-02T03:37:52.602Z,2.55
2022-10-02T03:39:22.999Z,2.53
2022-10-02T03:40:24.232Z,1.67
2022-10-02T03:41:26.418Z,2.40
2022-10-02T03:42:33.249Z,2.03
2022-10-02T03:43:35.566Z,2.42
2022-10-02T03:44:37.781Z,2.67
2022-10-02T03:45:51.094Z,2.50
2022-10-02T03:46:54.054Z,2.22
2022-10-02T03:47:56.479Z,2.75
2022-10-02T03:48:58.872Z,2.15
2022-10-02T03:50:01.068Z,1.85
2022-10-02T03:51:03.689Z,2.60
2022-10-02T03:52:05.939Z,2.22
2022-10-02T03:53:22.380Z,2.42
2022-10-02T03:54:24.690Z,2.25
2022-10-02T03:55:38.948Z,2.25
2022-10-02T03:56:49.897Z,2.30
2022-10-02T03:57:54.273Z,2.78
2022-10-02T03:59:01.761Z,2.60
2022-10-02T04:00:12.925Z,2.53
2022-10-02T04:01:26.631Z,2.10
2022-10-02T04:02:47.397Z,2.60
2022-10-02T04:03:56.024Z,2.17
2022-10-02T04:05:14.174Z,2.47
2022-10-02T04:06:25.331Z,3.00
2022-10-02T04:07:36.563Z,2.33
2022-10-02T04:09:10.201Z,2.03
2022-10-02T04:10:21.409Z,2.30
2022-10-02T04:11:45.021Z,2.53
2022-10-02T04:12:51.985Z,2.47
2022-10-02T04:14:03.681Z,2.30
2022-10-02T04:15:39.826Z,2.33
2022-10-02T04:16:46.714Z,2.50
2022-10-02T04:17:59.659Z,2.65
2022-10-02T04:19:11.496Z,2.78
2022-10-02T04:20:33.061Z,2.53
2022-10-02T04:21:59.323Z,3.13
2022-10-02T04:23:11.748Z,2.35
2022-10-02T04:24:42.710Z,2.42
2022-10-02T04:25:49.546Z,2.58
2022-10-02T04:27:06.939Z,2.30
2022-10-02T04:28:15.245Z,2.70
2022-10-02T04:29:27.236Z,2.58
2022-10-02T04:30:30.191Z,2.92
2022-10-02T04:31:32.482Z,3.17
2022-10-02T04:32:36.762Z,2.35
2022-10-02T04:33:39.297Z,2.60
2022-10-02T04:34:41.919Z,2.28
2022-10-02T04:36:05.527Z,2.80
2022-10-02T04:37:44.410Z,2.55
2022-10-02T04:39:04.850Z,2.58
2022-10-02T04:40:21.921Z,2.33
2022-10-02T04:41:57.689Z,2.20
2022-10-02T04:43:30.465Z,2.00
2022-10-02T04:45:09.976Z,2.65
2022-10-02T04:46:14.796Z,2.40
2022-10-02T04:47:45.786Z,2.72
2022-10-02T04:49:01.078Z,1.85
2022-10-02T04:50:32.046Z,2.40
2022-10-02T04:51:59.997Z,2.40
2022-10-02T04:53:12.030Z,2.67
2022-10-02T04:54:35.526Z,2.03
2022-10-02T04:55:49.312Z,3.13
2022-10-02T04:57:16.643Z,2.10
2022-10-02T04:58:53.828Z,2.90
2022-10-02T05:00:04.808Z,2.42
2022-10-02T05:01:46.494Z,2.20
2022-10-02T05:03:04.735Z,2.80
2022-10-02T05:04:44.123Z,3.17
2022-10-02T05:06:08.845Z,2.90
2022-10-02T05:07:37.977Z,2.50
2022-10-02T05:08:58.098Z,3.00
2022-10-02T05:10:44.380Z,2.42
2022-10-02T05:12:22.973Z,2.67
2022-10-02T05:13:49.586Z,2.75
2022-10-02T05:15:28.845Z,3.00
2022-10-02T05:17:07.260Z,2.63
2022-10-02T05:18:20.315Z,2.45
2022-10-02T05:19:48.339Z,2.45
2022-10-02T05:21:08.527Z,3.08
2022-10-02T05:22:26.139Z,2.60
2022-10-02T05:23:57.813Z,2.28
2022-10-02T05:25:30.260Z,2.08
2022-10-02T05:27:02.825Z,2.50
2022-10-02T05:28:17.054Z,1.90
2022-10-02T05:29:49.329Z,2.50
2022-10-02T05:31:21.195Z,2.50
2022-10-02T05:32:39.206Z,2.17
2022-10-02T05:34:02.806Z,2.58
2022-10-02T05:35:19.352Z,2.33
2022-10-02T05:36:28.942Z,2.25
2022-10-02T05:37:44.335Z,2.40
2022-10-02T05:39:04.243Z,2.67
2022-10-02T05:40:31.787Z,2.72
2022-10-02T05:41:51.845Z,2.08
2022-10-02T05:43:15.314Z,2.63
2022-10-02T05:44:19.679Z,2.58
2022-10-02T05:45:28.249Z,2.38
2022-10-02T05:46:43.796Z,2.30
2022-10-02T05:47:46.491Z,2.47
2022-10-02T05:49:00.100Z,2.53
2022-10-02T05:50:22.136Z,2.40
2022-10-02T05:51:36.855Z,2.40
2022-10-02T05:52:59.328Z,2.70
2022-10-02T05:54:07.275Z,2.88
2022-10-02T05:55:18.268Z,2.50
2022-10-02T05:56:23.994Z,2.35
2022-10-02T05:57:42.898Z,3.35
2022-10-02T05:59:13.356Z,2.30
2022-10-02T06:00:29.997Z,2.28
2022-10-02T06:01:39.640Z,2.33
2022-10-02T06:02:58.789Z,2.85
2022-10-02T06:04:07.872Z,1.88
2022-10-02T06:05:29.439Z,2.10
2022-10-02T06:06:47.310Z,3.10
2022-10-02T06:10:12.224Z,2.72
2022-10-02T06:17:26.994Z,2.20
2022-10-02T06:18:33.543Z,1.90
2022-10-02T06:19:54.081Z,2.30
2022-10-02T06:21:05.867Z,1.98
2022-10-02T06:22:15.207Z,2.25
2022-10-02T06:23:24.783Z,2.00
2022-10-02T06:24:33.711Z,2.40
2022-10-02T06:25:49.090Z,2.22
2022-10-02T06:27:00.906Z,2.70
2022-10-02T06:28:15.783Z,2.03
2022-10-02T06:29:27.343Z,2.38
2022-10-02T06:30:32.189Z,2.60
2022-10-02T06:31:44.803Z,2.50
2022-10-02T06:33:05.891Z,2.20
2022-10-02T06:34:12.180Z,1.92
2022-10-02T06:35:16.661Z,1.80
2022-10-02T06:36:33.918Z,2.60
2022-10-02T06:37:42.543Z,2.85
2022-10-02T06:39:24.278Z,2.80
2022-10-02T06:40:45.653Z,2.45
2022-10-02T06:42:34.598Z,2.20
2022-10-02T06:44:04.344Z,2.55
2022-10-02T06:45:32.705Z,2.60
2022-10-02T06:46:37.695Z,2.75
2022-10-02T06:48:19.113Z,2.95
2022-10-02T06:50:04.630Z,2.90
2022-10-02T06:51:21.916Z,3.00
2022-10-02T06:52:42.233Z,3.00
2022-10-02T06:54:26.229Z,3.40
2022-10-02T06:56:03.190Z,2.45
2022-10-02T06:57:21.415Z,2.30
2022-10-02T06:58:30.082Z,3.22
2022-10-02T06:59:59.357Z,2.10
2022-10-02T07:01:41.545Z,2.10
2022-10-02T07:02:55.755Z,2.38
2022-10-02T07:04:19.177Z,1.70
2022-10-02T07:05:27.094Z,1.88
2022-10-02T07:07:17.063Z,1.95
2022-10-02T07:08:37.869Z,1.88
2022-10-02T07:09:40.293Z,2.15
2022-10-02T07:10:49.715Z,2.10
2022-10-02T07:12:04.123Z,1.80
2022-10-02T07:13:27.582Z,2.00
2022-10-02T07:14:51.100Z,2.05
2022-10-02T07:16:09.130Z,1.83
2022-10-02T07:17:21.508Z,1.90
2022-10-02T07:18:44.440Z,1.90
2022-10-02T07:19:52.328Z,1.95
2022-10-02T07:21:10.197Z,1.95
2022-10-02T07:22:43.309Z,1.50
2022-10-02T07:24:01.432Z,2.00
2022-10-02T07:25:16.741Z,2.10
2022-10-02T07:26:35.368Z,1.92
2022-10-02T07:28:22.879Z,1.70
2022-10-02T07:29:51.212Z,2.00
2022-10-02T07:30:59.875Z,1.65
2022-10-02T07:32:35.014Z,2.45
2022-10-02T07:33:40.000Z,2.22
2022-10-02T07:35:00.993Z,1.92
2022-10-02T07:36:11.801Z,1.90
2022-10-02T07:37:41.269Z,2.00
2022-10-02T07:39:12.606Z,1.65
2022-10-02T07:40:45.973Z,1.63
2022-10-02T07:41:59.948Z,1.27
2022-10-02T07:43:43.507Z,1.48
2022-10-02T07:45:02.323Z,1.63
2022-10-02T07:46:27.932Z,1.75
2022-10-02T07:48:07.454Z,1.40
2022-10-02T07:49:24.641Z,1.40
2022-10-02T07:50:53.382Z,1.13
2022-10-02T07:52:10.558Z,1.30
2022-10-02T07:53:32.080Z,1.30
2022-10-02T07:54:42.629Z,2.85
2022-10-02T07:55:51.277Z,1.20
2022-10-02T07:56:58.988Z,1.10
2022-10-02T07:58:16.011Z,1.30
2022-10-02T07:59:19.194Z,1.60
2022-10-02T08:00:24.552Z,1.58
2022-10-02T08:01:32.098Z,1.33
2022-10-02T08:02:43.514Z,1.30
2022-10-02T08:03:52.204Z,1.45
2022-10-02T08:04:59.354Z,1.48
2022-10-02T08:06:03.103Z,1.40
2022-10-02T08:07:06.389Z,1.50
2022-10-02T08:08:22.097Z,1.83
2022-10-02T08:09:37.557Z,1.30
2022-10-02T08:10:44.185Z,1.40
2022-10-02T08:11:53.736Z,1.20
2022-10-02T08:13:23.328Z,1.20
2022-10-02T08:14:42.956Z,1.63
2022-10-02T08:15:48.281Z,1.58
2022-10-02T08:16:57.062Z,1.25
2022-10-02T08:18:22.879Z,1.20
2022-10-02T08:19:35.004Z,1.08
2022-10-02T08:20:46.395Z,1.13
2022-10-02T08:21:56.152Z,0.80
2022-10-02T08:23:03.600Z,1.00
2022-10-02T08:24:13.607Z,0.90
2022-10-02T08:25:28.519Z,1.10
2022-10-02T08:26:36.845Z,0.90
2022-10-02T08:28:05.651Z,1.17
2022-10-02T08:29:26.393Z,1.02
2022-10-02T08:30:29.155Z,1.30
2022-10-02T08:31:34.679Z,0.98
2022-10-02T08:32:37.353Z,1.45
2022-10-02T08:33:40.213Z,1.88
2022-10-02T08:34:44.067Z,1.63
2022-10-02T08:36:23.140Z,1.38
2022-10-02T08:37:57.774Z,1.45
2022-10-02T08:39:25.314Z,0.95
2022-10-02T08:40:46.234Z,0.90
2022-10-02T08:42:33.592Z,0.95
2022-10-02T08:43:47.764Z,0.82
2022-10-02T08:45:03.998Z,1.00
2022-10-02T08:46:32.635Z,0.93
2022-10-02T08:47:59.778Z,1.15
2022-10-02T08:49:40.009Z,2.67
2022-10-02T08:51:07.309Z,1.23
2022-10-02T08:52:27.620Z,0.73
2022-10-02T08:54:06.470Z,0.80
2022-10-02T08:55:19.211Z,1.00
2022-10-02T08:56:34.232Z,0.80
2022-10-02T08:57:58.984Z,0.50
2022-10-02T08:59:04.467Z,0.55
2022-10-02T09:00:09.971Z,0.40
2022-10-02T09:01:18.794Z,0.50
2022-10-02T09:02:48.953Z,0.32
2022-10-02T09:04:15.666Z,0.30
2022-10-02T09:05:52.686Z,0.50
2022-10-02T09:07:27.978Z,0.40
2022-10-02T09:08:59.826Z,0.50
2022-10-02T09:10:26.547Z,0.40
2022-10-02T09:11:37.828Z,0.30
2022-10-02T09:12:49.155Z,0.70
2022-10-02T09:14:20.905Z,0.52
2022-10-02T09:15:28.447Z,0.60
2022-10-02T09:16:44.414Z,0.47
2022-10-02T09:17:55.753Z,0.50
2022-10-02T09:19:03.409Z,0.32
2022-10-02T09:20:27.114Z,0.50
2022-10-02T09:21:51.278Z,0.70
2022-10-02T09:23:21.211Z,0.90
2022-10-02T09:25:37.378Z,0.75
2022-10-02T09:26:58.017Z,0.40
2022-10-02T09:28:47.139Z,0.60
2022-10-02T09:30:12.612Z,0.60
2022-10-02T09:31:30.753Z,0.40
2022-10-02T09:33:06.515Z,0.40
2022-10-02T09:34:39.527Z,0.40
2022-10-02T09:35:44.522Z,0.47
2022-10-02T09:37:08.631Z,0.60
2022-10-02T09:38:29.711Z,0.60
2022-10-02T09:39:51.605Z,0.50
2022-10-02T09:41:12.502Z,0.63
2022-10-02T09:42:26.778Z,1.50
2022-10-02T09:44:07.704Z,0.80
2022-10-02T09:45:51.362Z,0.90
2022-10-02T09:47:08.674Z,0.50
2022-10-02T09:48:32.632Z,0.60
2022-10-02T09:49:43.708Z,0.63
2022-10-02T09:50:54.584Z,1.10
2022-10-02T09:52:27.598Z,0.85
2022-10-02T09:53:48.448Z,1.08
2022-10-02T09:55:29.324Z,0.90
2022-10-02T09:56:53.345Z,0.90
2022-10-02T09:58:20.131Z,0.80
2022-10-02T09:59:44.569Z,0.70
2022-10-02T10:01:18.410Z,0.90
2022-10-02T10:02:41.541Z,0.68
2022-10-02T10:04:16.466Z,0.70
2022-10-02T10:05:43.088Z,0.40
2022-10-02T10:07:19.059Z,0.40
2022-10-02T10:08:36.787Z,0.65
2022-10-02T10:10:14.661Z,0.38
2022-10-02T10:11:16.844Z,0.30
2022-10-02T10:13:00.949Z,0.38
2022-10-02T10:16:14.978Z,0.30
2022-10-02T10:17:30.561Z,0.25
2022-10-02T10:18:55.084Z,0.30
2022-10-02T10:20:22.841Z,0.20
2022-10-02T10:21:48.044Z,0.30
2022-10-02T10:23:36.388Z,0.45
2022-10-02T10:25:02.163Z,0.50
2022-10-02T10:26:18.317Z,0.40
2022-10-02T10:27:47.304Z,0.45
2022-10-02T10:28:55.329Z,0.30
2022-10-02T10:30:16.028Z,0.40
2022-10-02T10:31:27.144Z,0.35
2022-10-02T10:33:13.683Z,0.35
2022-10-02T10:34:46.065Z,0.25
2022-10-02T10:35:52.413Z,0.50
2022-10-02T10:37:35.011Z,0.30
2022-10-02T10:38:51.259Z,0.30
2022-10-02T10:40:29.818Z,0.40
2022-10-02T10:42:05.408Z,0.20
2022-10-02T10:43:51.918Z,0.50
2022-10-02T10:45:11.314Z,0.30
2022-10-02T10:46:47.169Z,0.38
2022-10-02T10:47:59.161Z,0.40
2022-10-02T10:49:10.479Z,0.45
2022-10-02T10:50:35.724Z,0.20
2022-10-02T10:52:13.956Z,0.50
2022-10-02T10:53:32.966Z,0.30
2022-10-02T10:55:08.053Z,0.45
2022-10-02T10:56:39.423Z,0.30
2022-10-02T10:57:47.890Z,0.30
2022-10-02T10:59:12.144Z,0.30
2022-10-02T11:00:25.866Z,0.50
2022-10-02T11:01:45.793Z,0.50
2022-10-02T11:03:18.292Z,0.50
2022-10-02T11:04:20.540Z,0.43
2022-10-02T11:05:51.497Z,0.30
2022-10-02T11:07:41.944Z,0.30
2022-10-02T11:08:54.329Z,0.30
2022-10-02T11:10:24.124Z,0.30
2022-10-02T11:11:49.372Z,0.30
2022-10-02T11:13:01.182Z,0.60
2022-10-02T11:14:26.747Z,0.50
2022-10-02T11:15:44.720Z,1.20
2022-10-02T11:17:13.687Z,0.70
2022-10-02T11:18:47.649Z,0.30
2022-10-02T11:20:16.268Z,0.20
2022-10-02T11:21:58.248Z,0.22
2022-10-02T11:23:07.345Z,0.20
2022-10-02T11:24:25.910Z,0.40
2022-10-02T11:25:45.984Z,0.20
2022-10-02T11:27:18.952Z,0.50
2022-10-02T11:28:46.985Z,0.35
2022-10-02T11:30:11.279Z,0.20
2022-10-02T11:31:16.578Z,0.28
2022-10-02T11:32:39.271Z,0.25
2022-10-02T11:34:12.804Z,0.20
2022-10-02T11:35:24.560Z,0.50
2022-10-02T11:36:44.743Z,0.30
2022-10-02T11:38:26.064Z,0.40
2022-10-02T11:39:55.702Z,0.25
2022-10-02T11:41:21.248Z,0.20
2022-10-02T11:43:04.855Z,0.30
2022-10-02T11:44:34.777Z,0.30
2022-10-02T11:46:21.629Z,0.40
2022-10-02T11:47:28.669Z,0.35
2022-10-02T11:48:40.796Z,0.30
2022-10-02T11:49:59.054Z,0.30
2022-10-02T11:51:17.792Z,0.20
2022-10-02T11:52:22.930Z,0.25
2022-10-02T11:53:37.026Z,0.50
2022-10-02T11:54:57.556Z,0.30
2022-10-02T11:56:22.212Z,0.40
2022-10-02T11:57:45.800Z,0.60
2022-10-02T11:59:27.315Z,0.50
2022-10-02T12:00:51.443Z,0.40
2022-10-02T12:02:16.676Z,0.50
2022-10-02T12:03:37.666Z,0.30
2022-10-02T12:05:06.002Z,0.50
2022-10-02T12:06:36.444Z,0.50
2022-10-02T12:07:41.480Z,0.40
2022-10-02T12:09:05.407Z,0.30
2022-10-02T12:10:28.570Z,0.60
2022-10-02T12:12:01.626Z,0.60
2022-10-02T12:13:15.843Z,0.43
2022-10-02T12:14:23.821Z,0.40
2022-10-02T12:15:44.612Z,0.43
2022-10-02T12:17:24.369Z,0.47
2022-10-02T12:18:31.747Z,0.40
2022-10-02T12:20:15.178Z,0.40
2022-10-02T12:21:54.407Z,0.40
2022-10-02T12:23:52.256Z,0.63
2022-10-02T12:25:32.009Z,0.60
2022-10-02T12:27:09.546Z,0.88
2022-10-02T12:28:32.461Z,0.50
2022-10-02T12:29:53.321Z,0.60
2022-10-02T12:31:25.805Z,0.70
2022-10-02T12:32:46.700Z,0.73
2022-10-02T12:34:01.211Z,0.75
2022-10-02T12:35:32.424Z,0.70
2022-10-02T12:36:58.165Z,0.70
2022-10-02T12:38:30.426Z,0.52
2022-10-02T12:39:32.600Z,0.50
2022-10-02T12:41:20.707Z,0.80
2022-10-02T12:42:53.545Z,0.60
2022-10-02T12:44:44.778Z,0.60
2022-10-02T12:45:58.738Z,0.50
2022-10-02T12:47:26.204Z,0.63
2022-10-02T12:49:06.615Z,0.70
2022-10-02T12:50:46.609Z,1.13
2022-10-02T12:52:07.244Z,0.40
2022-10-02T12:53:44.453Z,0.65
2022-10-02T12:55:15.974Z,0.65
2022-10-02T12:56:36.180Z,0.50
2022-10-02T12:57:53.184Z,0.68
2022-10-02T12:59:07.664Z,0.90
2022-10-02T13:00:16.381Z,0.70
2022-10-02T13:01:30.778Z,0.60
2022-10-02T13:03:11.816Z,0.70
2022-10-02T13:04:24.718Z,0.80
2022-10-02T13:05:46.962Z,1.00
2022-10-02T13:07:08.043Z,0.90
2022-10-02T13:08:31.466Z,0.80
2022-10-02T13:09:38.620Z,0.60
2022-10-02T13:10:57.335Z,0.70
2022-10-02T13:12:32.340Z,0.35
2022-10-02T13:13:53.632Z,0.60
2022-10-02T13:15:25.218Z,0.38
2022-10-02T13:17:12.422Z,0.60
2022-10-02T13:18:43.699Z,0.55
2022-10-02T13:20:14.454Z,0.50
2022-10-02T13:21:30.442Z,0.40
2022-10-02T13:22:40.934Z,0.47
2022-10-02T13:23:54.837Z,0.50
2022-10-02T13:25:15.581Z,0.50
2022-10-02T13:26:26.845Z,0.30
2022-10-02T13:27:49.436Z,0.38
2022-10-02T13:29:07.725Z,0.50
2022-10-02T13:30:20.151Z,0.40
2022-10-02T13:32:45.177Z,0.50
2022-10-02T13:33:59.619Z,0.63
2022-10-02T13:35:27.736Z,0.60
2022-10-02T13:36:46.212Z,0.60
2022-10-02T13:38:04.486Z,1.05
2022-10-02T13:39:24.881Z,0.70
2022-10-02T13:41:00.207Z,0.50
2022-10-02T13:42:02.579Z,0.82
2022-10-02T13:43:20.016Z,0.77
2022-10-02T13:44:37.489Z,0.70
2022-10-02T13:46:04.297Z,0.70
2022-10-02T13:47:22.520Z,0.50
2022-10-02T13:48:56.147Z,0.70
2022-10-02T13:50:23.401Z,0.70
2022-10-02T13:51:46.478Z,0.70
2022-10-02T13:53:18.688Z,0.70
2022-10-02T13:54:30.493Z,0.60
2022-10-02T13:56:03.990Z,0.90
2022-10-02T13:58:28.596Z,0.70
2022-10-02T13:59:42.698Z,1.00
2022-10-02T14:01:16.598Z,1.00
2022-10-02T14:02:39.871Z,1.10
2022-10-02T14:04:13.393Z,1.23
2022-10-02T14:05:37.037Z,1.00
2022-10-02T14:07:05.321Z,1.13
2022-10-02T14:08:29.361Z,0.90
2022-10-02T14:09:45.165Z,0.70
2022-10-02T14:11:05.014Z,1.00
2022-10-02T14:12:13.013Z,0.63
2022-10-02T14:13:26.943Z,0.73
2022-10-02T14:14:56.361Z,0.60
2022-10-02T14:16:28.090Z,0.50
2022-10-02T14:18:02.767Z,0.63
2022-10-02T14:19:24.717Z,0.40
2022-10-02T14:20:29.858Z,0.50
2022-10-02T14:21:39.759Z,0.80
2022-10-02T14:22:48.594Z,0.38
2022-10-02T14:24:05.715Z,0.75
2022-10-02T14:25:28.228Z,0.77
2022-10-02T14:26:58.713Z,1.20
2022-10-02T14:28:12.312Z,0.98
2022-10-02T14:29:23.744Z,1.48
2022-10-02T14:31:04.437Z,0.95
2022-10-02T14:32:19.047Z,0.90
2022-10-02T14:33:58.499Z,1.10
2022-10-02T14:35:35.484Z,0.90
2022-10-02T14:36:53.211Z,0.88
2022-10-02T14:38:13.050Z,0.85
2022-10-02T14:39:41.394Z,0.60
2022-10-02T14:40:52.013Z,0.80
2022-10-02T14:42:15.311Z,0.65
2022-10-02T14:43:29.128Z,0.80
2022-10-02T14:44:46.296Z,0.88
2022-10-02T14:46:16.798Z,0.50
2022-10-02T14:47:27.784Z,0.50
2022-10-02T14:49:07.651Z,0.60
2022-10-02T14:50:32.607Z,1.10
2022-10-02T14:51:48.034Z,0.60
2022-10-02T14:53:11.207Z,0.80
2022-10-02T14:54:34.407Z,0.73
2022-10-02T14:55:44.224Z,0.93
2022-10-02T14:57:04.816Z,0.88
2022-10-02T14:58:28.792Z,1.10
2022-10-02T15:00:13.768Z,1.17
2022-10-02T15:01:21.550Z,1.38
2022-10-02T15:02:35.712Z,1.77
2022-10-02T15:03:56.059Z,1.83
2022-10-02T15:05:22.117Z,1.98
2022-10-02T15:06:41.993Z,1.80
2022-10-02T15:07:45.544Z,2.05
2022-10-02T15:09:02.940Z,2.88
2022-10-02T15:10:27.564Z,2.88
2022-10-02T15:11:35.988Z,2.83
2022-10-02T15:13:02.924Z,2.08
2022-10-02T15:14:25.214Z,2.38
2022-10-02T15:15:46.668Z,2.60
2022-10-02T15:17:32.879Z,2.42
2022-10-02T15:18:41.852Z,2.63
2022-10-02T15:19:51.286Z,2.58
2022-10-02T15:21:00.742Z,2.70
2022-10-02T15:22:19.737Z,3.42
2022-10-02T15:23:42.151Z,2.70
2022-10-02T15:24:48.089Z,2.40
2022-10-02T15:25:57.860Z,2.20
2022-10-02T15:27:22.673Z,1.77
2022-10-02T15:28:45.368Z,1.40
2022-10-02T15:29:56.875Z,1.30
2022-10-02T15:31:06.933Z,1.27
2022-10-02T15:32:20.938Z,1.70
2022-10-02T15:33:46.138Z,1.60
2022-10-02T15:35:00.815Z,2.17
2022-10-02T15:36:36.018Z,1.80
2022-10-02T15:37:53.635Z,1.65
2022-10-02T15:39:17.633Z,2.22
2022-10-02T15:40:24.304Z,2.13
2022-10-02T15:41:45.788Z,2.10
2022-10-02T15:42:58.806Z,2.78
2022-10-02T15:44:06.897Z,2.33
2022-10-02T15:45:40.685Z,3.05
2022-10-02T15:46:57.127Z,2.28
2022-10-02T15:48:23.964Z,2.38
2022-10-02T15:49:47.949Z,3.80
2022-10-02T15:50:58.290Z,2.50
2022-10-02T15:52:37.946Z,2.40
2022-10-02T15:53:58.222Z,1.88
2022-10-02T15:55:19.669Z,1.83
2022-10-02T15:56:41.653Z,2.55
2022-10-02T15:57:57.532Z,2.13
2022-10-02T15:59:05.331Z,2.35
2022-10-02T16:00:18.621Z,2.20
2022-10-02T16:01:24.360Z,2.10
2022-10-02T16:02:48.283Z,1.77
2022-10-02T16:04:01.853Z,2.40
2022-10-02T16:05:16.249Z,2.63
2022-10-02T16:06:50.598Z,2.65
2022-10-02T16:08:34.301Z,2.03
2022-10-02T16:09:55.012Z,1.67
2022-10-02T16:11:15.731Z,1.40
2022-10-02T16:12:23.526Z,1.50
2022-10-02T16:13:37.871Z,1.20
2022-10-02T16:15:07.873Z,1.40
2022-10-02T16:16:33.993Z,1.25
2022-10-02T16:17:48.808Z,1.50
2022-10-02T16:19:15.272Z,2.65
2022-10-02T16:20:26.295Z,2.47
2022-10-02T16:22:08.466Z,2.67
2022-10-02T16:23:42.746Z,2.30
2022-10-02T16:25:06.209Z,2.92
2022-10-02T16:26:33.333Z,2.83
2022-10-02T16:28:00.225Z,4.88
2022-10-02T16:29:26.350Z,3.90
2022-10-02T16:30:36.372Z,4.80
2022-10-02T16:31:57.257Z,5.13
2022-10-02T16:33:40.468Z,5.38
2022-10-02T16:34:54.501Z,5.82
2022-10-02T16:36:57.393Z,5.95
2022-10-02T16:38:39.771Z,7.32
2022-10-02T16:40:06.207Z,3.45
2022-10-02T16:41:26.323Z,8.10
2022-10-02T16:42:53.197Z,4.60
2022-10-02T16:44:10.939Z,4.22
2022-10-02T16:45:28.878Z,3.72
2022-10-02T16:46:57.870Z,3.65
2022-10-02T16:48:19.062Z,9.15
2022-10-02T16:49:21.240Z,9.10
2022-10-02T16:50:41.550Z,8.68
2022-10-02T16:51:56.995Z,3.63
2022-10-02T16:53:06.588Z,3.65
2022-10-02T16:54:08.731Z,2.55
2022-10-02T16:55:35.579Z,2.97
2022-10-02T16:57:02.715Z,2.30
2022-10-02T16:58:13.804Z,1.80
2022-10-02T16:59:22.492Z,2.83
2022-10-02T17:00:31.567Z,2.22
2022-10-02T17:02:05.523Z,1.73
2022-10-02T17:03:56.422Z,2.05
2022-10-02T17:05:12.918Z,1.48
2022-10-02T17:06:32.473Z,1.73
2022-10-02T17:07:54.569Z,1.85
2022-10-02T17:09:11.658Z,2.15
2022-10-02T17:10:35.184Z,2.00
2022-10-02T17:12:11.111Z,2.72
2022-10-02T17:13:33.037Z,3.63
2022-10-02T17:14:44.882Z,7.35
2022-10-02T17:16:12.044Z,8.32
2022-10-02T17:17:26.477Z,7.85
2022-10-02T17:18:52.914Z,7.82
2022-10-02T17:20:00.862Z,6.43
2022-10-02T17:21:27.564Z,6.78
2022-10-02T17:22:52.454Z,2.75
2022-10-02T17:24:19.172Z,16.02
2022-10-02T17:25:42.365Z,17.58
2022-10-02T17:27:02.513Z,14.88
2022-10-02T17:28:21.534Z,5.53
2022-10-02T17:29:34.434Z,2.70
2022-10-02T17:30:57.855Z,2.90
2022-10-02T17:32:01.425Z,2.60
2022-10-02T17:33:13.450Z,3.28
2022-10-02T17:34:24.998Z,9.02
2022-10-02T17:35:48.181Z,5.60
2022-10-02T17:37:26.116Z,4.47
2022-10-02T17:38:47.492Z,4.50
2022-10-02T17:40:30.143Z,5.32
2022-10-02T17:41:52.406Z,5.78
2022-10-02T17:43:10.874Z,5.95
2022-10-02T17:44:25.883Z,5.00
2022-10-02T17:45:45.718Z,5.60
2022-10-02T17:47:12.105Z,6.22
2022-10-02T17:48:39.473Z,8.30